sensor_id;sensor_type;location;lat;lon;timestamp;temperature;humidity
74458;SHT31;62896;51.032;3.712;2023-01-23T00:01:30;2.3;90
74458;SHT31;62896;51.032;3.712;2023-01-23T00:04:49;2.3;90
74458;SHT31;62896;51.032;3.712;2023-01-23T00:08:09;2.3;90
74458;SHT31;62896;51.032;3.712;2023-01-23T00:11:29;2.2;90
74458;SHT31;62896;51.032;3.712;2023-01-23T00:14:49;2.2;90
74458;SHT31;62896;51.032;3.712;2023-01-23T00:18:09;2.2;90
74458;SHT31;62896;51.032;3.712;2023-01-23T00:21:29;2.2;91
74458;SHT31;62896;51.032;3.712;2023-01-23T00:24:49;2.2;91
74458;SHT31;62896;51.032;3.712;2023-01-23T00:28:09;2.2;91
74458;SHT31;62896;51.032;3.712;2023-01-23T00:31:31;2.2;91
74458;SHT31;62896;51.032;3.712;2023-01-23T00:34:49;2.2;91
74458;SHT31;62896;51.032;3.712;2023-01-23T00:38:09;2.2;91
74458;SHT31;62896;51.032;3.712;2023-01-23T00:41:29;2.2;91
74458;SHT31;62896;51.032;3.712;2023-01-23T00:44:49;2.2;91
74458;SHT31;62896;51.032;3.712;2023-01-23T00:48:09;2.2;91
74458;SHT31;62896;51.032;3.712;2023-01-23T00:51:29;2.1;92
74458;SHT31;62896;51.032;3.712;2023-01-23T00:54:49;2.1;92
74458;SHT31;62896;51.032;3.712;2023-01-23T00:58:09;2.1;92
74458;SHT31;62896;51.032;3.712;2023-01-23T01:01:29;2.2;92
74458;SHT31;62896;51.032;3.712;2023-01-23T01:04:49;2.2;92
74458;SHT31;62896;51.032;3.712;2023-01-23T01:08:09;2.2;92
74458;SHT31;62896;51.032;3.712;2023-01-23T01:11:29;2.2;92
74458;SHT31;62896;51.032;3.712;2023-01-23T01:14:49;2.2;92
74458;SHT31;62896;51.032;3.712;2023-01-23T01:18:09;2.2;92
74458;SHT31;62896;51.032;3.712;2023-01-23T01:21:29;2.1;92
74458;SHT31;62896;51.032;3.712;2023-01-23T01:24:49;2.1;92
74458;SHT31;62896;51.032;3.712;2023-01-23T01:28:09;2.1;92
74458;SHT31;62896;51.032;3.712;2023-01-23T01:31:29;2.1;92
74458;SHT31;62896;51.032;3.712;2023-01-23T01:34:49;2.1;92
74458;SHT31;62896;51.032;3.712;2023-01-23T01:38:09;2.1;92
74458;SHT31;62896;51.032;3.712;2023-01-23T01:41:29;2.1;92
74458;SHT31;62896;51.032;3.712;2023-01-23T01:44:50;2.1;92
74458;SHT31;62896;51.032;3.712;2023-01-23T01:48:09;2.1;92
74458;SHT31;62896;51.032;3.712;2023-01-23T01:51:30;2.1;92
74458;SHT31;62896;51.032;3.712;2023-01-23T01:54:51;2.1;92
74458;SHT31;62896;51.032;3.712;2023-01-23T01:58:09;2.1;92
74458;SHT31;62896;51.032;3.712;2023-01-23T02:01:29;2.1;93
74458;SHT31;62896;51.032;3.712;2023-01-23T02:04:50;2.1;93
74458;SHT31;62896;51.032;3.712;2023-01-23T02:08:10;2.1;93
74458;SHT31;62896;51.032;3.712;2023-01-23T02:11:29;2;93
74458;SHT31;62896;51.032;3.712;2023-01-23T02:14:49;2;93
74458;SHT31;62896;51.032;3.712;2023-01-23T02:18:09;2;93
74458;SHT31;62896;51.032;3.712;2023-01-23T02:21:29;2;93
74458;SHT31;62896;51.032;3.712;2023-01-23T02:24:50;2;93
74458;SHT31;62896;51.032;3.712;2023-01-23T02:28:10;2;93
74458;SHT31;62896;51.032;3.712;2023-01-23T02:31:29;1.9;93
74458;SHT31;62896;51.032;3.712;2023-01-23T02:34:50;1.9;93
74458;SHT31;62896;51.032;3.712;2023-01-23T02:38:09;1.9;93
74458;SHT31;62896;51.032;3.712;2023-01-23T02:41:30;2;93
74458;SHT31;62896;51.032;3.712;2023-01-23T02:44:49;2;93
74458;SHT31;62896;51.032;3.712;2023-01-23T02:48:09;2;93
74458;SHT31;62896;51.032;3.712;2023-01-23T02:51:29;2;93
74458;SHT31;62896;51.032;3.712;2023-01-23T02:54:49;2;93
74458;SHT31;62896;51.032;3.712;2023-01-23T02:58:09;2;93
74458;SHT31;62896;51.032;3.712;2023-01-23T03:01:29;2;93
74458;SHT31;62896;51.032;3.712;2023-01-23T03:04:49;2;93
74458;SHT31;62896;51.032;3.712;2023-01-23T03:08:09;2;93
74458;SHT31;62896;51.032;3.712;2023-01-23T03:11:29;2;93
74458;SHT31;62896;51.032;3.712;2023-01-23T03:14:49;2;93
74458;SHT31;62896;51.032;3.712;2023-01-23T03:18:09;2;93
74458;SHT31;62896;51.032;3.712;2023-01-23T03:21:30;2;93
74458;SHT31;62896;51.032;3.712;2023-01-23T03:24:49;2;93
74458;SHT31;62896;51.032;3.712;2023-01-23T03:28:09;2;93
74458;SHT31;62896;51.032;3.712;2023-01-23T03:31:29;1.9;93
74458;SHT31;62896;51.032;3.712;2023-01-23T03:34:49;1.9;93
74458;SHT31;62896;51.032;3.712;2023-01-23T03:38:09;1.9;93
74458;SHT31;62896;51.032;3.712;2023-01-23T03:41:29;1.9;93
74458;SHT31;62896;51.032;3.712;2023-01-23T03:44:50;1.9;93
74458;SHT31;62896;51.032;3.712;2023-01-23T03:48:09;1.9;93
74458;SHT31;62896;51.032;3.712;2023-01-23T03:51:29;1.9;93
74458;SHT31;62896;51.032;3.712;2023-01-23T03:54:49;1.9;93
74458;SHT31;62896;51.032;3.712;2023-01-23T03:58:09;1.9;93
74458;SHT31;62896;51.032;3.712;2023-01-23T04:01:29;1.9;93
74458;SHT31;62896;51.032;3.712;2023-01-23T04:04:49;1.9;93
74458;SHT31;62896;51.032;3.712;2023-01-23T04:08:09;1.9;93
74458;SHT31;62896;51.032;3.712;2023-01-23T04:11:29;1.9;93
74458;SHT31;62896;51.032;3.712;2023-01-23T04:14:49;1.9;93
74458;SHT31;62896;51.032;3.712;2023-01-23T04:18:09;1.9;93
74458;SHT31;62896;51.032;3.712;2023-01-23T04:21:29;1.9;94
74458;SHT31;62896;51.032;3.712;2023-01-23T04:24:49;1.9;94
74458;SHT31;62896;51.032;3.712;2023-01-23T04:28:09;1.9;94
74458;SHT31;62896;51.032;3.712;2023-01-23T04:31:29;1.8;94
74458;SHT31;62896;51.032;3.712;2023-01-23T04:34:49;1.8;94
74458;SHT31;62896;51.032;3.712;2023-01-23T04:38:09;1.8;94
74458;SHT31;62896;51.032;3.712;2023-01-23T04:41:30;1.8;94
74458;SHT31;62896;51.032;3.712;2023-01-23T04:44:49;1.8;94
74458;SHT31;62896;51.032;3.712;2023-01-23T04:48:09;1.8;94
74458;SHT31;62896;51.032;3.712;2023-01-23T04:51:29;1.8;94
74458;SHT31;62896;51.032;3.712;2023-01-23T04:54:49;1.8;94
74458;SHT31;62896;51.032;3.712;2023-01-23T04:58:09;1.8;94
74458;SHT31;62896;51.032;3.712;2023-01-23T05:01:29;1.8;94
74458;SHT31;62896;51.032;3.712;2023-01-23T05:04:49;1.8;94
74458;SHT31;62896;51.032;3.712;2023-01-23T05:08:09;1.8;94
74458;SHT31;62896;51.032;3.712;2023-01-23T05:11:29;1.9;94
74458;SHT31;62896;51.032;3.712;2023-01-23T05:14:49;1.9;94
74458;SHT31;62896;51.032;3.712;2023-01-23T05:18:09;1.9;94
74458;SHT31;62896;51.032;3.712;2023-01-23T05:21:29;2;94
74458;SHT31;62896;51.032;3.712;2023-01-23T05:24:49;2;94
74458;SHT31;62896;51.032;3.712;2023-01-23T05:28:09;2;94
74458;SHT31;62896;51.032;3.712;2023-01-23T05:31:29;1.9;94
74458;SHT31;62896;51.032;3.712;2023-01-23T05:34:49;1.9;94
74458;SHT31;62896;51.032;3.712;2023-01-23T05:38:10;1.9;94
74458;SHT31;62896;51.032;3.712;2023-01-23T05:41:29;1.9;94
74458;SHT31;62896;51.032;3.712;2023-01-23T05:44:49;1.9;94
74458;SHT31;62896;51.032;3.712;2023-01-23T05:48:09;1.9;94
74458;SHT31;62896;51.032;3.712;2023-01-23T05:51:29;1.9;94
74458;SHT31;62896;51.032;3.712;2023-01-23T05:54:49;1.9;94
74458;SHT31;62896;51.032;3.712;2023-01-23T05:58:09;1.9;94
74458;SHT31;62896;51.032;3.712;2023-01-23T06:01:29;1.8;95
74458;SHT31;62896;51.032;3.712;2023-01-23T06:04:49;1.8;95
74458;SHT31;62896;51.032;3.712;2023-01-23T06:08:09;1.8;95
74458;SHT31;62896;51.032;3.712;2023-01-23T06:11:29;1.9;95
74458;SHT31;62896;51.032;3.712;2023-01-23T06:14:49;1.9;95
74458;SHT31;62896;51.032;3.712;2023-01-23T06:18:09;1.9;95
74458;SHT31;62896;51.032;3.712;2023-01-23T06:21:29;1.9;95
74458;SHT31;62896;51.032;3.712;2023-01-23T06:24:49;1.9;95
74458;SHT31;62896;51.032;3.712;2023-01-23T06:28:09;1.9;95
74458;SHT31;62896;51.032;3.712;2023-01-23T06:31:29;1.9;95
74458;SHT31;62896;51.032;3.712;2023-01-23T06:34:49;1.9;95
74458;SHT31;62896;51.032;3.712;2023-01-23T06:38:09;1.9;95
74458;SHT31;62896;51.032;3.712;2023-01-23T06:41:29;2;95
74458;SHT31;62896;51.032;3.712;2023-01-23T06:44:49;2;95
74458;SHT31;62896;51.032;3.712;2023-01-23T06:48:09;2;95
74458;SHT31;62896;51.032;3.712;2023-01-23T06:51:29;2;95
74458;SHT31;62896;51.032;3.712;2023-01-23T06:54:49;2;95
74458;SHT31;62896;51.032;3.712;2023-01-23T06:58:09;2;95
74458;SHT31;62896;51.032;3.712;2023-01-23T07:01:29;2.1;94
74458;SHT31;62896;51.032;3.712;2023-01-23T07:04:49;2.1;94
74458;SHT31;62896;51.032;3.712;2023-01-23T07:08:10;2.1;94
74458;SHT31;62896;51.032;3.712;2023-01-23T07:11:29;2.1;95
74458;SHT31;62896;51.032;3.712;2023-01-23T07:14:49;2.1;95
74458;SHT31;62896;51.032;3.712;2023-01-23T07:18:09;2.1;95
74458;SHT31;62896;51.032;3.712;2023-01-23T07:21:29;2.1;95
74458;SHT31;62896;51.032;3.712;2023-01-23T07:24:49;2.1;95
74458;SHT31;62896;51.032;3.712;2023-01-23T07:28:09;2.1;95
74458;SHT31;62896;51.032;3.712;2023-01-23T07:31:29;2.5;93
74458;SHT31;62896;51.032;3.712;2023-01-23T07:34:49;2.5;93
74458;SHT31;62896;51.032;3.712;2023-01-23T07:38:09;2.5;93
74458;SHT31;62896;51.032;3.712;2023-01-23T07:41:29;2.3;94
74458;SHT31;62896;51.032;3.712;2023-01-23T07:44:49;2.3;94
74458;SHT31;62896;51.032;3.712;2023-01-23T07:48:09;2.3;94
74458;SHT31;62896;51.032;3.712;2023-01-23T07:51:29;2.3;94
74458;SHT31;62896;51.032;3.712;2023-01-23T07:54:49;2.3;94
74458;SHT31;62896;51.032;3.712;2023-01-23T07:58:09;2.3;94
74458;SHT31;62896;51.032;3.712;2023-01-23T08:01:29;2.3;94
74458;SHT31;62896;51.032;3.712;2023-01-23T08:04:49;2.3;94
74458;SHT31;62896;51.032;3.712;2023-01-23T08:08:09;2.3;94
74458;SHT31;62896;51.032;3.712;2023-01-23T08:11:29;2.3;94
74458;SHT31;62896;51.032;3.712;2023-01-23T08:14:49;2.3;94
74458;SHT31;62896;51.032;3.712;2023-01-23T08:18:09;2.3;94
74458;SHT31;62896;51.032;3.712;2023-01-23T08:21:29;2.3;94
74458;SHT31;62896;51.032;3.712;2023-01-23T08:24:49;2.3;94
74458;SHT31;62896;51.032;3.712;2023-01-23T08:28:09;2.3;94
74458;SHT31;62896;51.032;3.712;2023-01-23T08:31:29;2.4;94
74458;SHT31;62896;51.032;3.712;2023-01-23T08:34:49;2.4;94
74458;SHT31;62896;51.032;3.712;2023-01-23T08:38:09;2.4;94
74458;SHT31;62896;51.032;3.712;2023-01-23T08:41:29;2.4;94
74458;SHT31;62896;51.032;3.712;2023-01-23T08:44:49;2.4;94
74458;SHT31;62896;51.032;3.712;2023-01-23T08:48:09;2.4;94
74458;SHT31;62896;51.032;3.712;2023-01-23T08:51:29;2.5;94
74458;SHT31;62896;51.032;3.712;2023-01-23T08:54:49;2.5;94
74458;SHT31;62896;51.032;3.712;2023-01-23T08:58:09;2.5;94
74458;SHT31;62896;51.032;3.712;2023-01-23T09:01:29;2.5;94
74458;SHT31;62896;51.032;3.712;2023-01-23T09:04:49;2.5;94
74458;SHT31;62896;51.032;3.712;2023-01-23T09:08:09;2.5;94
74458;SHT31;62896;51.032;3.712;2023-01-23T09:11:29;2.6;93
74458;SHT31;62896;51.032;3.712;2023-01-23T09:14:49;2.6;93
74458;SHT31;62896;51.032;3.712;2023-01-23T09:18:09;2.6;93
74458;SHT31;62896;51.032;3.712;2023-01-23T09:21:29;2.7;93
74458;SHT31;62896;51.032;3.712;2023-01-23T09:24:49;2.7;93
74458;SHT31;62896;51.032;3.712;2023-01-23T09:28:09;2.7;93
74458;SHT31;62896;51.032;3.712;2023-01-23T09:31:29;2.7;93
74458;SHT31;62896;51.032;3.712;2023-01-23T09:34:49;2.7;93
74458;SHT31;62896;51.032;3.712;2023-01-23T09:38:09;2.7;93
74458;SHT31;62896;51.032;3.712;2023-01-23T09:41:29;2.8;93
74458;SHT31;62896;51.032;3.712;2023-01-23T09:44:50;2.8;93
74458;SHT31;62896;51.032;3.712;2023-01-23T09:48:13;2.8;93
74458;SHT31;62896;51.032;3.712;2023-01-23T09:51:33;2.8;93
74458;SHT31;62896;51.032;3.712;2023-01-23T09:54:50;2.8;93
74458;SHT31;62896;51.032;3.712;2023-01-23T09:58:13;2.8;93
74458;SHT31;62896;51.032;3.712;2023-01-23T10:01:30;2.9;92
74458;SHT31;62896;51.032;3.712;2023-01-23T10:04:50;2.9;92
74458;SHT31;62896;51.032;3.712;2023-01-23T10:08:13;2.9;92
74458;SHT31;62896;51.032;3.712;2023-01-23T10:11:32;3;92
74458;SHT31;62896;51.032;3.712;2023-01-23T10:14:54;3;92
74458;SHT31;62896;51.032;3.712;2023-01-23T10:18:13;3;92
74458;SHT31;62896;51.032;3.712;2023-01-23T10:21:31;3;92
74458;SHT31;62896;51.032;3.712;2023-01-23T10:24:50;3;92
74458;SHT31;62896;51.032;3.712;2023-01-23T10:28:15;3;92
74458;SHT31;62896;51.032;3.712;2023-01-23T10:31:32;3;92
74458;SHT31;62896;51.032;3.712;2023-01-23T10:34:52;3;92
74458;SHT31;62896;51.032;3.712;2023-01-23T10:38:11;3;92
74458;SHT31;62896;51.032;3.712;2023-01-23T10:41:30;3.1;91
74458;SHT31;62896;51.032;3.712;2023-01-23T10:44:50;3.1;91
74458;SHT31;62896;51.032;3.712;2023-01-23T10:48:37;3.1;91
74458;SHT31;62896;51.032;3.712;2023-01-23T10:51:34;3.3;90
74458;SHT31;62896;51.032;3.712;2023-01-23T10:54:50;3.3;90
74458;SHT31;62896;51.032;3.712;2023-01-23T10:58:18;3.3;90
74458;SHT31;62896;51.032;3.712;2023-01-23T11:01:30;3.4;89
74458;SHT31;62896;51.032;3.712;2023-01-23T11:04:50;3.4;89
74458;SHT31;62896;51.032;3.712;2023-01-23T11:08:20;3.4;89
74458;SHT31;62896;51.032;3.712;2023-01-23T11:11:30;3.6;88
74458;SHT31;62896;51.032;3.712;2023-01-23T11:14:50;3.6;88
74458;SHT31;62896;51.032;3.712;2023-01-23T11:18:21;3.6;88
74458;SHT31;62896;51.032;3.712;2023-01-23T11:21:31;3.8;87
74458;SHT31;62896;51.032;3.712;2023-01-23T11:24:50;3.8;87
74458;SHT31;62896;51.032;3.712;2023-01-23T11:28:18;3.8;87
74458;SHT31;62896;51.032;3.712;2023-01-23T11:31:30;3.9;86
74458;SHT31;62896;51.032;3.712;2023-01-23T11:34:50;3.9;86
74458;SHT31;62896;51.032;3.712;2023-01-23T11:38:10;3.9;86
74458;SHT31;62896;51.032;3.712;2023-01-23T11:41:30;3.9;86
74458;SHT31;62896;51.032;3.712;2023-01-23T11:44:50;3.9;86
74458;SHT31;62896;51.032;3.712;2023-01-23T11:48:13;3.9;86
74458;SHT31;62896;51.032;3.712;2023-01-23T11:51:31;3.7;86
74458;SHT31;62896;51.032;3.712;2023-01-23T11:54:54;3.7;86
74458;SHT31;62896;51.032;3.712;2023-01-23T11:58:13;3.7;86
74458;SHT31;62896;51.032;3.712;2023-01-23T12:01:30;4.1;84
74458;SHT31;62896;51.032;3.712;2023-01-23T12:04:53;4.1;84
74458;SHT31;62896;51.032;3.712;2023-01-23T12:08:13;4.1;84
74458;SHT31;62896;51.032;3.712;2023-01-23T12:11:31;4.4;82
74458;SHT31;62896;51.032;3.712;2023-01-23T12:14:51;4.4;82
74458;SHT31;62896;51.032;3.712;2023-01-23T12:18:13;4.4;82
74458;SHT31;62896;51.032;3.712;2023-01-23T12:21:31;4.7;81
74458;SHT31;62896;51.032;3.712;2023-01-23T12:24:52;4.7;81
74458;SHT31;62896;51.032;3.712;2023-01-23T12:28:14;4.7;81
74458;SHT31;62896;51.032;3.712;2023-01-23T12:31:34;4.3;82
74458;SHT31;62896;51.032;3.712;2023-01-23T12:34:54;4.3;82
74458;SHT31;62896;51.032;3.712;2023-01-23T12:38:15;4.3;82
74458;SHT31;62896;51.032;3.712;2023-01-23T12:41:30;4.5;82
74458;SHT31;62896;51.032;3.712;2023-01-23T12:44:53;4.5;82
74458;SHT31;62896;51.032;3.712;2023-01-23T12:48:11;4.5;82
74458;SHT31;62896;51.032;3.712;2023-01-23T12:51:32;4.4;82
74458;SHT31;62896;51.032;3.712;2023-01-23T12:54:50;4.4;82
74458;SHT31;62896;51.032;3.712;2023-01-23T12:58:11;4.4;82
74458;SHT31;62896;51.032;3.712;2023-01-23T13:01:49;4.4;83
74458;SHT31;62896;51.032;3.712;2023-01-23T13:04:53;4.4;83
74458;SHT31;62896;51.032;3.712;2023-01-23T13:08:12;4.4;83
74458;SHT31;62896;51.032;3.712;2023-01-23T13:11:32;4.5;82
74458;SHT31;62896;51.032;3.712;2023-01-23T13:14:50;4.5;82
74458;SHT31;62896;51.032;3.712;2023-01-23T13:18:20;4.5;82
74458;SHT31;62896;51.032;3.712;2023-01-23T13:21:30;4.5;82
74458;SHT31;62896;51.032;3.712;2023-01-23T13:24:50;4.5;82
74458;SHT31;62896;51.032;3.712;2023-01-23T13:28:24;4.5;82
74458;SHT31;62896;51.032;3.712;2023-01-23T13:31:32;4.5;82
74458;SHT31;62896;51.032;3.712;2023-01-23T13:34:50;4.5;82
74458;SHT31;62896;51.032;3.712;2023-01-23T13:38:24;4.5;82
74458;SHT31;62896;51.032;3.712;2023-01-23T13:41:30;4.5;82
74458;SHT31;62896;51.032;3.712;2023-01-23T13:45:21;4.5;82
74458;SHT31;62896;51.032;3.712;2023-01-23T13:48:17;4.5;82
74458;SHT31;62896;51.032;3.712;2023-01-23T13:51:30;4.5;82
74458;SHT31;62896;51.032;3.712;2023-01-23T13:54:50;4.5;82
74458;SHT31;62896;51.032;3.712;2023-01-23T13:58:10;4.5;82
74458;SHT31;62896;51.032;3.712;2023-01-23T14:01:30;4.6;82
74458;SHT31;62896;51.032;3.712;2023-01-23T14:04:54;4.6;82
74458;SHT31;62896;51.032;3.712;2023-01-23T14:08:14;4.6;82
74458;SHT31;62896;51.032;3.712;2023-01-23T14:11:33;4.7;82
74458;SHT31;62896;51.032;3.712;2023-01-23T14:14:50;4.7;82
74458;SHT31;62896;51.032;3.712;2023-01-23T14:18:13;4.7;82
74458;SHT31;62896;51.032;3.712;2023-01-23T14:21:30;5.6;79
74458;SHT31;62896;51.032;3.712;2023-01-23T14:24:50;5.6;79
74458;SHT31;62896;51.032;3.712;2023-01-23T14:28:11;5.6;79
74458;SHT31;62896;51.032;3.712;2023-01-23T14:31:30;5.2;80
74458;SHT31;62896;51.032;3.712;2023-01-23T14:34:50;5.2;80
74458;SHT31;62896;51.032;3.712;2023-01-23T14:38:10;5.2;80
74458;SHT31;62896;51.032;3.712;2023-01-23T14:41:30;4.9;81
74458;SHT31;62896;51.032;3.712;2023-01-23T14:44:50;4.9;81
74458;SHT31;62896;51.032;3.712;2023-01-23T14:48:12;4.9;81
74458;SHT31;62896;51.032;3.712;2023-01-23T14:51:30;4.4;82
74458;SHT31;62896;51.032;3.712;2023-01-23T14:54:50;4.4;82
74458;SHT31;62896;51.032;3.712;2023-01-23T14:58:11;4.4;82
74458;SHT31;62896;51.032;3.712;2023-01-23T15:01:30;4.2;83
74458;SHT31;62896;51.032;3.712;2023-01-23T15:05:05;4.2;83
74458;SHT31;62896;51.032;3.712;2023-01-23T15:08:16;4.2;83
74458;SHT31;62896;51.032;3.712;2023-01-23T15:11:30;4.1;84
74458;SHT31;62896;51.032;3.712;2023-01-23T15:14:51;4.1;84
74458;SHT31;62896;51.032;3.712;2023-01-23T15:18:14;4.1;84
74458;SHT31;62896;51.032;3.712;2023-01-23T15:21:31;4.1;84
74458;SHT31;62896;51.032;3.712;2023-01-23T15:24:50;4.1;84
74458;SHT31;62896;51.032;3.712;2023-01-23T15:28:27;4.1;84
74458;SHT31;62896;51.032;3.712;2023-01-23T15:31:30;4.1;85
74458;SHT31;62896;51.032;3.712;2023-01-23T15:34:50;4.1;85
74458;SHT31;62896;51.032;3.712;2023-01-23T15:38:12;4.1;85
74458;SHT31;62896;51.032;3.712;2023-01-23T15:41:37;4.1;85
74458;SHT31;62896;51.032;3.712;2023-01-23T15:44:50;4.1;85
74458;SHT31;62896;51.032;3.712;2023-01-23T15:48:10;4.1;85
74458;SHT31;62896;51.032;3.712;2023-01-23T15:51:30;4;85
74458;SHT31;62896;51.032;3.712;2023-01-23T15:54:50;4;85
74458;SHT31;62896;51.032;3.712;2023-01-23T15:58:10;4;85
74458;SHT31;62896;51.032;3.712;2023-01-23T16:01:30;3.9;86
74458;SHT31;62896;51.032;3.712;2023-01-23T16:04:50;3.9;86
74458;SHT31;62896;51.032;3.712;2023-01-23T16:08:13;3.9;86
74458;SHT31;62896;51.032;3.712;2023-01-23T16:11:31;3.9;86
74458;SHT31;62896;51.032;3.712;2023-01-23T16:14:50;3.9;86
74458;SHT31;62896;51.032;3.712;2023-01-23T16:18:10;3.9;86
74458;SHT31;62896;51.032;3.712;2023-01-23T16:21:30;4;86
74458;SHT31;62896;51.032;3.712;2023-01-23T16:24:50;4;86
74458;SHT31;62896;51.032;3.712;2023-01-23T16:28:10;4;86
74458;SHT31;62896;51.032;3.712;2023-01-23T16:31:30;3.9;86
74458;SHT31;62896;51.032;3.712;2023-01-23T16:34:50;3.9;86
74458;SHT31;62896;51.032;3.712;2023-01-23T16:38:11;3.9;86
74458;SHT31;62896;51.032;3.712;2023-01-23T16:41:30;3.9;86
74458;SHT31;62896;51.032;3.712;2023-01-23T16:44:50;3.9;86
74458;SHT31;62896;51.032;3.712;2023-01-23T16:48:10;3.9;86
74458;SHT31;62896;51.032;3.712;2023-01-23T16:51:30;3.9;86
74458;SHT31;62896;51.032;3.712;2023-01-23T16:54:50;3.9;86
74458;SHT31;62896;51.032;3.712;2023-01-23T16:58:12;3.9;86
74458;SHT31;62896;51.032;3.712;2023-01-23T17:01:30;3.9;85
74458;SHT31;62896;51.032;3.712;2023-01-23T17:04:50;3.9;85
74458;SHT31;62896;51.032;3.712;2023-01-23T17:08:13;3.9;85
74458;SHT31;62896;51.032;3.712;2023-01-23T17:11:32;3.9;84
74458;SHT31;62896;51.032;3.712;2023-01-23T17:14:51;3.9;84
74458;SHT31;62896;51.032;3.712;2023-01-23T17:18:14;3.9;84
74458;SHT31;62896;51.032;3.712;2023-01-23T17:21:31;3.9;84
74458;SHT31;62896;51.032;3.712;2023-01-23T17:24:50;3.9;84
74458;SHT31;62896;51.032;3.712;2023-01-23T17:28:10;3.9;84
74458;SHT31;62896;51.032;3.712;2023-01-23T17:31:30;3.9;84
74458;SHT31;62896;51.032;3.712;2023-01-23T17:34:50;3.9;84
74458;SHT31;62896;51.032;3.712;2023-01-23T17:38:12;3.9;84
74458;SHT31;62896;51.032;3.712;2023-01-23T17:41:30;3.9;84
74458;SHT31;62896;51.032;3.712;2023-01-23T17:44:50;3.9;84
74458;SHT31;62896;51.032;3.712;2023-01-23T17:48:10;3.9;84
74458;SHT31;62896;51.032;3.712;2023-01-23T17:51:30;3.9;85
74458;SHT31;62896;51.032;3.712;2023-01-23T17:54:50;3.9;85
74458;SHT31;62896;51.032;3.712;2023-01-23T17:58:10;3.9;85
74458;SHT31;62896;51.032;3.712;2023-01-23T18:01:30;3.9;85
74458;SHT31;62896;51.032;3.712;2023-01-23T18:04:50;3.9;85
74458;SHT31;62896;51.032;3.712;2023-01-23T18:08:10;3.9;85
74458;SHT31;62896;51.032;3.712;2023-01-23T18:11:30;3.9;84
74458;SHT31;62896;51.032;3.712;2023-01-23T18:14:51;3.9;84
74458;SHT31;62896;51.032;3.712;2023-01-23T18:18:15;3.9;84
74458;SHT31;62896;51.032;3.712;2023-01-23T18:21:30;3.8;84
74458;SHT31;62896;51.032;3.712;2023-01-23T18:24:50;3.8;84
74458;SHT31;62896;51.032;3.712;2023-01-23T18:28:13;3.8;84
74458;SHT31;62896;51.032;3.712;2023-01-23T18:31:30;3.8;84
74458;SHT31;62896;51.032;3.712;2023-01-23T18:34:51;3.8;84
74458;SHT31;62896;51.032;3.712;2023-01-23T18:38:11;3.8;84
74458;SHT31;62896;51.032;3.712;2023-01-23T18:41:30;3.8;84
74458;SHT31;62896;51.032;3.712;2023-01-23T18:44:51;3.8;84
74458;SHT31;62896;51.032;3.712;2023-01-23T18:48:10;3.8;84
74458;SHT31;62896;51.032;3.712;2023-01-23T18:51:34;3.8;85
74458;SHT31;62896;51.032;3.712;2023-01-23T18:54:51;3.8;85
74458;SHT31;62896;51.032;3.712;2023-01-23T18:58:17;3.8;85
74458;SHT31;62896;51.032;3.712;2023-01-23T19:01:33;3.8;86
74458;SHT31;62896;51.032;3.712;2023-01-23T19:04:52;3.8;86
74458;SHT31;62896;51.032;3.712;2023-01-23T19:08:18;3.8;86
74458;SHT31;62896;51.032;3.712;2023-01-23T19:11:31;3.7;86
74458;SHT31;62896;51.032;3.712;2023-01-23T19:14:55;3.7;86
74458;SHT31;62896;51.032;3.712;2023-01-23T19:18:13;3.7;86
74458;SHT31;62896;51.032;3.712;2023-01-23T19:21:30;3.7;87
74458;SHT31;62896;51.032;3.712;2023-01-23T19:24:50;3.7;87
74458;SHT31;62896;51.032;3.712;2023-01-23T19:28:10;3.7;87
74458;SHT31;62896;51.032;3.712;2023-01-23T19:31:30;3.6;87
74458;SHT31;62896;51.032;3.712;2023-01-23T19:34:50;3.6;87
74458;SHT31;62896;51.032;3.712;2023-01-23T19:38:10;3.6;87
74458;SHT31;62896;51.032;3.712;2023-01-23T19:41:33;3.6;87
74458;SHT31;62896;51.032;3.712;2023-01-23T19:44:50;3.6;87
74458;SHT31;62896;51.032;3.712;2023-01-23T19:48:10;3.6;87
74458;SHT31;62896;51.032;3.712;2023-01-23T19:51:30;3.6;86
74458;SHT31;62896;51.032;3.712;2023-01-23T19:54:50;3.6;86
74458;SHT31;62896;51.032;3.712;2023-01-23T19:58:10;3.6;86
74458;SHT31;62896;51.032;3.712;2023-01-23T20:01:32;3.6;86
74458;SHT31;62896;51.032;3.712;2023-01-23T20:04:50;3.6;86
74458;SHT31;62896;51.032;3.712;2023-01-23T20:08:10;3.6;86
74458;SHT31;62896;51.032;3.712;2023-01-23T20:11:30;3.5;85
74458;SHT31;62896;51.032;3.712;2023-01-23T20:14:50;3.5;85
74458;SHT31;62896;51.032;3.712;2023-01-23T20:18:10;3.5;85
74458;SHT31;62896;51.032;3.712;2023-01-23T20:21:30;3.5;85
74458;SHT31;62896;51.032;3.712;2023-01-23T20:24:50;3.5;85
74458;SHT31;62896;51.032;3.712;2023-01-23T20:28:10;3.5;85
74458;SHT31;62896;51.032;3.712;2023-01-23T20:31:30;3.3;84
74458;SHT31;62896;51.032;3.712;2023-01-23T20:34:52;3.3;84
74458;SHT31;62896;51.032;3.712;2023-01-23T20:38:10;3.3;84
74458;SHT31;62896;51.032;3.712;2023-01-23T20:41:30;3.3;82
74458;SHT31;62896;51.032;3.712;2023-01-23T20:44:50;3.3;82
74458;SHT31;62896;51.032;3.712;2023-01-23T20:48:10;3.3;82
74458;SHT31;62896;51.032;3.712;2023-01-23T20:51:30;3.3;82
74458;SHT31;62896;51.032;3.712;2023-01-23T20:54:50;3.3;82
74458;SHT31;62896;51.032;3.712;2023-01-23T20:58:10;3.3;82
74458;SHT31;62896;51.032;3.712;2023-01-23T21:01:31;3.2;82
74458;SHT31;62896;51.032;3.712;2023-01-23T21:04:50;3.2;82
74458;SHT31;62896;51.032;3.712;2023-01-23T21:08:10;3.2;82
74458;SHT31;62896;51.032;3.712;2023-01-23T21:11:30;3.2;82
74458;SHT31;62896;51.032;3.712;2023-01-23T21:14:50;3.2;82
74458;SHT31;62896;51.032;3.712;2023-01-23T21:18:10;3.2;82
74458;SHT31;62896;51.032;3.712;2023-01-23T21:21:30;3.2;81
74458;SHT31;62896;51.032;3.712;2023-01-23T21:24:50;3.2;81
74458;SHT31;62896;51.032;3.712;2023-01-23T21:28:10;3.2;81
74458;SHT31;62896;51.032;3.712;2023-01-23T21:31:31;3.2;82
74458;SHT31;62896;51.032;3.712;2023-01-23T21:34:50;3.2;82
74458;SHT31;62896;51.032;3.712;2023-01-23T21:38:10;3.2;82
74458;SHT31;62896;51.032;3.712;2023-01-23T21:41:30;3.3;82
74458;SHT31;62896;51.032;3.712;2023-01-23T21:44:50;3.3;82
74458;SHT31;62896;51.032;3.712;2023-01-23T21:48:10;3.3;82
74458;SHT31;62896;51.032;3.712;2023-01-23T21:51:30;3.3;82
74458;SHT31;62896;51.032;3.712;2023-01-23T21:54:50;3.3;82
74458;SHT31;62896;51.032;3.712;2023-01-23T21:58:10;3.3;82
74458;SHT31;62896;51.032;3.712;2023-01-23T22:01:30;3.3;82
74458;SHT31;62896;51.032;3.712;2023-01-23T22:04:50;3.3;82
74458;SHT31;62896;51.032;3.712;2023-01-23T22:08:10;3.3;82
74458;SHT31;62896;51.032;3.712;2023-01-23T22:11:30;3.3;83
74458;SHT31;62896;51.032;3.712;2023-01-23T22:14:50;3.3;83
74458;SHT31;62896;51.032;3.712;2023-01-23T22:18:10;3.3;83
74458;SHT31;62896;51.032;3.712;2023-01-23T22:21:30;3.3;83
74458;SHT31;62896;51.032;3.712;2023-01-23T22:24:50;3.3;83
74458;SHT31;62896;51.032;3.712;2023-01-23T22:28:10;3.3;83
74458;SHT31;62896;51.032;3.712;2023-01-23T22:31:30;3.3;83
74458;SHT31;62896;51.032;3.712;2023-01-23T22:34:50;3.3;83
74458;SHT31;62896;51.032;3.712;2023-01-23T22:38:11;3.3;83
74458;SHT31;62896;51.032;3.712;2023-01-23T22:41:30;3.3;84
74458;SHT31;62896;51.032;3.712;2023-01-23T22:44:50;3.3;84
74458;SHT31;62896;51.032;3.712;2023-01-23T22:48:10;3.3;84
74458;SHT31;62896;51.032;3.712;2023-01-23T22:51:30;3.3;84
74458;SHT31;62896;51.032;3.712;2023-01-23T22:54:50;3.3;84
74458;SHT31;62896;51.032;3.712;2023-01-23T22:58:10;3.3;84